Terminal Aerodrome Forecast
Issued by NWS

Home | Current Version | Previous Version | Text Only | Print | Product List | Glossary On
Versions: 1 2 3 4 5 6 7 8 9 10 11 12 13 14 15 16 17 18
352
FTUS41 KLWX 302337
TAFMTN
TAF
KMTN 302337Z 3100/3124 15010G18KT 5SM -TSRA OVC060CB
      TEMPO 3101/3103 2SM TSRA BKN012 OVC045CB
     FM310400 VRB05KT P6SM BKN050
     FM311400 26006KT P6SM BKN200
     FM312100 14007KT P6SM BKN060
      AMD NOT SKED 3102/3112=

USA.gov is the U.S. government's official web portal to all federal, state and local government web resources and services.